sensor_id;sensor_type;location;lat;lon;timestamp;P1;durP1;ratioP1;P2;durP2;ratioP2
22916;SDS011;11624;53.250;7.456;2023-02-19T00:01:32;36.95;;;9.48;;
22916;SDS011;11624;53.250;7.456;2023-02-19T00:04:03;35.03;;;9.18;;
22916;SDS011;11624;53.250;7.456;2023-02-19T00:06:34;31.40;;;9.10;;
22916;SDS011;11624;53.250;7.456;2023-02-19T00:09:02;22.90;;;8.40;;
22916;SDS011;11624;53.250;7.456;2023-02-19T00:11:32;24.30;;;7.65;;
22916;SDS011;11624;53.250;7.456;2023-02-19T00:14:01;26.13;;;7.90;;
22916;SDS011;11624;53.250;7.456;2023-02-19T00:16:31;23.83;;;6.88;;
22916;SDS011;11624;53.250;7.456;2023-02-19T00:19:02;25.02;;;7.88;;
22916;SDS011;11624;53.250;7.456;2023-02-19T00:21:32;22.25;;;7.10;;
22916;SDS011;11624;53.250;7.456;2023-02-19T00:24:02;19.08;;;5.80;;
22916;SDS011;11624;53.250;7.456;2023-02-19T00:26:32;16.15;;;5.18;;
22916;SDS011;11624;53.250;7.456;2023-02-19T00:29:01;15.30;;;4.88;;
22916;SDS011;11624;53.250;7.456;2023-02-19T00:31:30;14.40;;;4.00;;
22916;SDS011;11624;53.250;7.456;2023-02-19T00:34:00;15.27;;;4.32;;
22916;SDS011;11624;53.250;7.456;2023-02-19T00:36:31;16.55;;;4.22;;
22916;SDS011;11624;53.250;7.456;2023-02-19T00:39:03;12.10;;;3.58;;
22916;SDS011;11624;53.250;7.456;2023-02-19T00:41:32;8.77;;;2.92;;
22916;SDS011;11624;53.250;7.456;2023-02-19T00:44:01;11.88;;;2.95;;
22916;SDS011;11624;53.250;7.456;2023-02-19T00:46:31;9.10;;;2.70;;
22916;SDS011;11624;53.250;7.456;2023-02-19T00:49:02;8.05;;;2.63;;
22916;SDS011;11624;53.250;7.456;2023-02-19T00:51:32;6.43;;;2.53;;
22916;SDS011;11624;53.250;7.456;2023-02-19T00:54:04;11.68;;;3.00;;
22916;SDS011;11624;53.250;7.456;2023-02-19T00:56:32;14.57;;;3.15;;
22916;SDS011;11624;53.250;7.456;2023-02-19T00:59:01;10.02;;;2.72;;
22916;SDS011;11624;53.250;7.456;2023-02-19T01:01:29;7.93;;;2.53;;
22916;SDS011;11624;53.250;7.456;2023-02-19T01:03:58;11.18;;;2.80;;
22916;SDS011;11624;53.250;7.456;2023-02-19T01:06:26;9.27;;;2.80;;
22916;SDS011;11624;53.250;7.456;2023-02-19T01:08:58;10.95;;;3.10;;
22916;SDS011;11624;53.250;7.456;2023-02-19T01:11:28;8.63;;;2.50;;
22916;SDS011;11624;53.250;7.456;2023-02-19T01:13:56;8.60;;;2.83;;
22916;SDS011;11624;53.250;7.456;2023-02-19T01:16:25;8.00;;;2.60;;
22916;SDS011;11624;53.250;7.456;2023-02-19T01:18:54;5.65;;;2.35;;
22916;SDS011;11624;53.250;7.456;2023-02-19T01:21:24;7.60;;;2.50;;
22916;SDS011;11624;53.250;7.456;2023-02-19T01:23:54;8.57;;;2.63;;
22916;SDS011;11624;53.250;7.456;2023-02-19T01:26:25;8.32;;;2.38;;
22916;SDS011;11624;53.250;7.456;2023-02-19T01:28:56;8.65;;;2.65;;
22916;SDS011;11624;53.250;7.456;2023-02-19T01:31:24;7.80;;;2.55;;
22916;SDS011;11624;53.250;7.456;2023-02-19T01:33:54;8.00;;;2.80;;
22916;SDS011;11624;53.250;7.456;2023-02-19T01:36:24;7.75;;;2.67;;
22916;SDS011;11624;53.250;7.456;2023-02-19T01:38:52;7.60;;;2.70;;
22916;SDS011;11624;53.250;7.456;2023-02-19T01:41:22;10.23;;;3.53;;
22916;SDS011;11624;53.250;7.456;2023-02-19T01:43:56;10.35;;;3.28;;
22916;SDS011;11624;53.250;7.456;2023-02-19T01:46:27;11.15;;;3.40;;
22916;SDS011;11624;53.250;7.456;2023-02-19T01:48:56;11.93;;;4.05;;
22916;SDS011;11624;53.250;7.456;2023-02-19T01:51:27;12.27;;;3.83;;
22916;SDS011;11624;53.250;7.456;2023-02-19T01:53:59;13.95;;;4.35;;
22916;SDS011;11624;53.250;7.456;2023-02-19T01:56:31;13.25;;;4.53;;
22916;SDS011;11624;53.250;7.456;2023-02-19T01:59:05;12.75;;;4.28;;
22916;SDS011;11624;53.250;7.456;2023-02-19T02:01:35;14.05;;;4.65;;
22916;SDS011;11624;53.250;7.456;2023-02-19T02:04:05;13.63;;;5.13;;
22916;SDS011;11624;53.250;7.456;2023-02-19T02:06:38;13.57;;;4.68;;
22916;SDS011;11624;53.250;7.456;2023-02-19T02:09:10;13.15;;;4.57;;
22916;SDS011;11624;53.250;7.456;2023-02-19T02:11:57;13.20;;;4.20;;
22916;SDS011;11624;53.250;7.456;2023-02-19T02:14:27;13.77;;;4.38;;
22916;SDS011;11624;53.250;7.456;2023-02-19T02:17:02;13.93;;;4.70;;
22916;SDS011;11624;53.250;7.456;2023-02-19T02:19:46;13.70;;;4.38;;
22916;SDS011;11624;53.250;7.456;2023-02-19T02:22:28;12.07;;;4.07;;
22916;SDS011;11624;53.250;7.456;2023-02-19T02:28:04;12.95;;;4.15;;
22916;SDS011;11624;53.250;7.456;2023-02-19T02:30:55;13.63;;;4.75;;
22916;SDS011;11624;53.250;7.456;2023-02-19T02:33:27;17.17;;;5.38;;
22916;SDS011;11624;53.250;7.456;2023-02-19T02:36:04;15.55;;;5.13;;
22916;SDS011;11624;53.250;7.456;2023-02-19T02:38:37;15.32;;;4.90;;
22916;SDS011;11624;53.250;7.456;2023-02-19T02:41:09;15.40;;;4.97;;
22916;SDS011;11624;53.250;7.456;2023-02-19T02:43:40;14.52;;;5.07;;
22916;SDS011;11624;53.250;7.456;2023-02-19T02:46:10;17.10;;;5.15;;
22916;SDS011;11624;53.250;7.456;2023-02-19T02:48:42;15.38;;;4.70;;
22916;SDS011;11624;53.250;7.456;2023-02-19T02:51:20;15.57;;;4.93;;
22916;SDS011;11624;53.250;7.456;2023-02-19T02:54:05;13.15;;;4.35;;
22916;SDS011;11624;53.250;7.456;2023-02-19T02:56:56;14.52;;;4.20;;
22916;SDS011;11624;53.250;7.456;2023-02-19T02:59:30;12.10;;;3.75;;
22916;SDS011;11624;53.250;7.456;2023-02-19T03:02:01;11.50;;;3.35;;
22916;SDS011;11624;53.250;7.456;2023-02-19T03:04:40;11.25;;;3.20;;
22916;SDS011;11624;53.250;7.456;2023-02-19T03:07:36;11.13;;;2.97;;
22916;SDS011;11624;53.250;7.456;2023-02-19T03:10:07;10.80;;;3.15;;
22916;SDS011;11624;53.250;7.456;2023-02-19T03:12:40;11.35;;;3.28;;
22916;SDS011;11624;53.250;7.456;2023-02-19T03:15:31;10.40;;;3.13;;
22916;SDS011;11624;53.250;7.456;2023-02-19T03:18:22;11.65;;;3.30;;
22916;SDS011;11624;53.250;7.456;2023-02-19T03:21:12;12.05;;;3.30;;
22916;SDS011;11624;53.250;7.456;2023-02-19T03:23:43;13.07;;;3.58;;
22916;SDS011;11624;53.250;7.456;2023-02-19T03:26:30;15.30;;;3.95;;
22916;SDS011;11624;53.250;7.456;2023-02-19T03:29:00;13.50;;;4.10;;
22916;SDS011;11624;53.250;7.456;2023-02-19T03:31:52;14.40;;;4.22;;
22916;SDS011;11624;53.250;7.456;2023-02-19T03:34:29;16.58;;;4.60;;
22916;SDS011;11624;53.250;7.456;2023-02-19T03:37:03;12.65;;;4.15;;
22916;SDS011;11624;53.250;7.456;2023-02-19T03:39:36;13.65;;;4.60;;
22916;SDS011;11624;53.250;7.456;2023-02-19T03:42:17;15.50;;;4.63;;
22916;SDS011;11624;53.250;7.456;2023-02-19T03:44:57;18.40;;;5.10;;
22916;SDS011;11624;53.250;7.456;2023-02-19T03:47:38;15.50;;;4.80;;
22916;SDS011;11624;53.250;7.456;2023-02-19T03:50:19;16.40;;;4.72;;
22916;SDS011;11624;53.250;7.456;2023-02-19T03:52:52;17.70;;;4.88;;
22916;SDS011;11624;53.250;7.456;2023-02-19T03:55:27;15.60;;;4.30;;
22916;SDS011;11624;53.250;7.456;2023-02-19T03:58:03;15.95;;;4.47;;
22916;SDS011;11624;53.250;7.456;2023-02-19T04:00:37;18.30;;;5.30;;
22916;SDS011;11624;53.250;7.456;2023-02-19T04:03:11;16.75;;;4.65;;
22916;SDS011;11624;53.250;7.456;2023-02-19T04:05:47;17.75;;;4.82;;
22916;SDS011;11624;53.250;7.456;2023-02-19T04:08:20;16.80;;;4.60;;
22916;SDS011;11624;53.250;7.456;2023-02-19T04:10:57;16.48;;;5.03;;
22916;SDS011;11624;53.250;7.456;2023-02-19T04:13:30;18.25;;;5.18;;
22916;SDS011;11624;53.250;7.456;2023-02-19T04:16:03;17.70;;;5.10;;
22916;SDS011;11624;53.250;7.456;2023-02-19T04:18:36;18.35;;;5.07;;
22916;SDS011;11624;53.250;7.456;2023-02-19T04:21:09;17.40;;;5.03;;
22916;SDS011;11624;53.250;7.456;2023-02-19T04:23:38;18.27;;;5.65;;
22916;SDS011;11624;53.250;7.456;2023-02-19T04:26:08;19.70;;;5.68;;
22916;SDS011;11624;53.250;7.456;2023-02-19T04:28:38;18.75;;;4.75;;
22916;SDS011;11624;53.250;7.456;2023-02-19T04:31:09;20.80;;;5.40;;
22916;SDS011;11624;53.250;7.456;2023-02-19T04:33:38;16.90;;;5.63;;
22916;SDS011;11624;53.250;7.456;2023-02-19T04:36:08;20.35;;;5.55;;
22916;SDS011;11624;53.250;7.456;2023-02-19T04:38:38;17.52;;;5.80;;
22916;SDS011;11624;53.250;7.456;2023-02-19T04:41:07;18.63;;;5.90;;
22916;SDS011;11624;53.250;7.456;2023-02-19T04:43:36;21.15;;;6.18;;
22916;SDS011;11624;53.250;7.456;2023-02-19T04:46:04;20.80;;;6.45;;
22916;SDS011;11624;53.250;7.456;2023-02-19T04:48:32;24.52;;;7.20;;
22916;SDS011;11624;53.250;7.456;2023-02-19T04:51:03;20.60;;;6.68;;
22916;SDS011;11624;53.250;7.456;2023-02-19T04:53:34;20.33;;;6.22;;
22916;SDS011;11624;53.250;7.456;2023-02-19T04:56:06;23.67;;;7.15;;
22916;SDS011;11624;53.250;7.456;2023-02-19T04:58:36;26.20;;;7.55;;
22916;SDS011;11624;53.250;7.456;2023-02-19T05:01:04;20.88;;;6.82;;
22916;SDS011;11624;53.250;7.456;2023-02-19T05:03:33;20.42;;;7.25;;
22916;SDS011;11624;53.250;7.456;2023-02-19T05:06:03;17.88;;;6.22;;
22916;SDS011;11624;53.250;7.456;2023-02-19T05:08:32;19.52;;;5.40;;
22916;SDS011;11624;53.250;7.456;2023-02-19T05:11:02;15.50;;;4.82;;
22916;SDS011;11624;53.250;7.456;2023-02-19T05:13:32;17.15;;;3.95;;
22916;SDS011;11624;53.250;7.456;2023-02-19T05:16:04;15.27;;;4.30;;
22916;SDS011;11624;53.250;7.456;2023-02-19T05:18:33;19.38;;;4.30;;
22916;SDS011;11624;53.250;7.456;2023-02-19T05:21:02;16.77;;;4.40;;
22916;SDS011;11624;53.250;7.456;2023-02-19T05:23:30;15.57;;;4.07;;
22916;SDS011;11624;53.250;7.456;2023-02-19T05:26:00;16.75;;;4.03;;
22916;SDS011;11624;53.250;7.456;2023-02-19T05:28:32;14.55;;;4.25;;
22916;SDS011;11624;53.250;7.456;2023-02-19T05:31:02;12.85;;;3.75;;
22916;SDS011;11624;53.250;7.456;2023-02-19T05:33:32;17.80;;;4.35;;
22916;SDS011;11624;53.250;7.456;2023-02-19T05:36:03;13.65;;;3.65;;
22916;SDS011;11624;53.250;7.456;2023-02-19T05:38:33;15.25;;;3.75;;
22916;SDS011;11624;53.250;7.456;2023-02-19T05:41:10;14.82;;;3.85;;
22916;SDS011;11624;53.250;7.456;2023-02-19T05:43:40;23.83;;;4.55;;
22916;SDS011;11624;53.250;7.456;2023-02-19T05:46:10;15.25;;;4.57;;
22916;SDS011;11624;53.250;7.456;2023-02-19T05:48:40;15.25;;;4.03;;
22916;SDS011;11624;53.250;7.456;2023-02-19T05:51:09;19.30;;;4.22;;
22916;SDS011;11624;53.250;7.456;2023-02-19T05:53:39;15.15;;;3.90;;
22916;SDS011;11624;53.250;7.456;2023-02-19T05:56:19;16.33;;;4.00;;
22916;SDS011;11624;53.250;7.456;2023-02-19T05:58:53;14.35;;;4.18;;
22916;SDS011;11624;53.250;7.456;2023-02-19T06:01:22;19.67;;;4.43;;
22916;SDS011;11624;53.250;7.456;2023-02-19T06:03:52;16.88;;;4.10;;
22916;SDS011;11624;53.250;7.456;2023-02-19T06:06:23;15.48;;;4.22;;
22916;SDS011;11624;53.250;7.456;2023-02-19T06:08:52;16.10;;;4.50;;
22916;SDS011;11624;53.250;7.456;2023-02-19T06:11:22;20.20;;;5.13;;
22916;SDS011;11624;53.250;7.456;2023-02-19T06:13:51;17.38;;;4.45;;
22916;SDS011;11624;53.250;7.456;2023-02-19T06:16:19;18.00;;;4.57;;
22916;SDS011;11624;53.250;7.456;2023-02-19T06:18:48;17.40;;;4.80;;
22916;SDS011;11624;53.250;7.456;2023-02-19T06:21:17;19.42;;;4.60;;
22916;SDS011;11624;53.250;7.456;2023-02-19T06:23:46;18.23;;;4.97;;
22916;SDS011;11624;53.250;7.456;2023-02-19T06:26:15;20.98;;;4.80;;
22916;SDS011;11624;53.250;7.456;2023-02-19T06:28:46;19.38;;;4.55;;
22916;SDS011;11624;53.250;7.456;2023-02-19T06:31:16;19.52;;;4.80;;
22916;SDS011;11624;53.250;7.456;2023-02-19T06:33:45;18.85;;;4.97;;
22916;SDS011;11624;53.250;7.456;2023-02-19T06:36:14;15.45;;;5.00;;
22916;SDS011;11624;53.250;7.456;2023-02-19T06:38:43;19.95;;;5.10;;
22916;SDS011;11624;53.250;7.456;2023-02-19T06:41:12;15.02;;;4.70;;
22916;SDS011;11624;53.250;7.456;2023-02-19T06:43:41;15.75;;;5.07;;
22916;SDS011;11624;53.250;7.456;2023-02-19T06:46:11;17.77;;;5.00;;
22916;SDS011;11624;53.250;7.456;2023-02-19T06:48:40;17.65;;;4.95;;
22916;SDS011;11624;53.250;7.456;2023-02-19T06:51:10;21.02;;;5.00;;
22916;SDS011;11624;53.250;7.456;2023-02-19T06:53:39;19.20;;;5.32;;
22916;SDS011;11624;53.250;7.456;2023-02-19T06:56:20;18.35;;;5.43;;
22916;SDS011;11624;53.250;7.456;2023-02-19T06:58:50;15.52;;;4.85;;
22916;SDS011;11624;53.250;7.456;2023-02-19T07:01:20;22.10;;;4.85;;
22916;SDS011;11624;53.250;7.456;2023-02-19T07:03:49;19.08;;;5.07;;
22916;SDS011;11624;53.250;7.456;2023-02-19T07:06:18;21.77;;;4.95;;
22916;SDS011;11624;53.250;7.456;2023-02-19T07:08:47;22.73;;;5.03;;
22916;SDS011;11624;53.250;7.456;2023-02-19T07:11:16;22.55;;;4.78;;
22916;SDS011;11624;53.250;7.456;2023-02-19T07:13:45;14.77;;;4.53;;
22916;SDS011;11624;53.250;7.456;2023-02-19T07:16:13;19.13;;;4.53;;
22916;SDS011;11624;53.250;7.456;2023-02-19T07:18:44;13.77;;;4.13;;
22916;SDS011;11624;53.250;7.456;2023-02-19T07:21:13;19.77;;;4.50;;
22916;SDS011;11624;53.250;7.456;2023-02-19T07:23:42;14.80;;;4.13;;
22916;SDS011;11624;53.250;7.456;2023-02-19T07:26:13;19.63;;;4.30;;
22916;SDS011;11624;53.250;7.456;2023-02-19T07:28:42;15.48;;;3.60;;
22916;SDS011;11624;53.250;7.456;2023-02-19T07:31:12;16.42;;;3.85;;
22916;SDS011;11624;53.250;7.456;2023-02-19T07:33:41;13.88;;;3.83;;
22916;SDS011;11624;53.250;7.456;2023-02-19T07:36:12;10.48;;;3.35;;
22916;SDS011;11624;53.250;7.456;2023-02-19T07:38:42;16.20;;;3.42;;
22916;SDS011;11624;53.250;7.456;2023-02-19T07:41:10;13.73;;;2.88;;
22916;SDS011;11624;53.250;7.456;2023-02-19T07:43:39;14.75;;;3.70;;
22916;SDS011;11624;53.250;7.456;2023-02-19T07:46:09;15.68;;;4.90;;
22916;SDS011;11624;53.250;7.456;2023-02-19T07:48:39;16.10;;;5.20;;
22916;SDS011;11624;53.250;7.456;2023-02-19T07:51:09;10.98;;;3.42;;
22916;SDS011;11624;53.250;7.456;2023-02-19T07:53:42;13.70;;;3.33;;
22916;SDS011;11624;53.250;7.456;2023-02-19T07:56:10;13.48;;;3.00;;
22916;SDS011;11624;53.250;7.456;2023-02-19T07:58:39;11.55;;;2.72;;
22916;SDS011;11624;53.250;7.456;2023-02-19T08:01:08;163.70;;;14.68;;
22916;SDS011;11624;53.250;7.456;2023-02-19T08:03:38;15.50;;;2.67;;
22916;SDS011;11624;53.250;7.456;2023-02-19T08:06:06;33.28;;;3.85;;
22916;SDS011;11624;53.250;7.456;2023-02-19T08:08:35;10.75;;;2.22;;
22916;SDS011;11624;53.250;7.456;2023-02-19T08:11:04;6.50;;;1.95;;
22916;SDS011;11624;53.250;7.456;2023-02-19T08:13:51;10.57;;;2.10;;
22916;SDS011;11624;53.250;7.456;2023-02-19T08:16:20;9.55;;;2.05;;
22916;SDS011;11624;53.250;7.456;2023-02-19T08:19:08;23.40;;;3.05;;
22916;SDS011;11624;53.250;7.456;2023-02-19T08:21:36;25.77;;;2.97;;
22916;SDS011;11624;53.250;7.456;2023-02-19T08:24:06;10.48;;;2.28;;
22916;SDS011;11624;53.250;7.456;2023-02-19T08:26:34;102.72;;;7.05;;
22916;SDS011;11624;53.250;7.456;2023-02-19T08:29:04;35.65;;;2.60;;
22916;SDS011;11624;53.250;7.456;2023-02-19T08:31:33;8.60;;;1.45;;
22916;SDS011;11624;53.250;7.456;2023-02-19T08:34:02;9.57;;;1.77;;
22916;SDS011;11624;53.250;7.456;2023-02-19T08:36:30;7.85;;;1.65;;
22916;SDS011;11624;53.250;7.456;2023-02-19T08:38:58;12.48;;;1.80;;
22916;SDS011;11624;53.250;7.456;2023-02-19T08:41:28;6.38;;;1.88;;
22916;SDS011;11624;53.250;7.456;2023-02-19T08:43:56;5.70;;;1.73;;
22916;SDS011;11624;53.250;7.456;2023-02-19T08:46:25;8.48;;;1.50;;
22916;SDS011;11624;53.250;7.456;2023-02-19T08:48:53;7.72;;;1.35;;
22916;SDS011;11624;53.250;7.456;2023-02-19T08:51:21;11.60;;;1.98;;
22916;SDS011;11624;53.250;7.456;2023-02-19T08:53:49;9.25;;;2.10;;
22916;SDS011;11624;53.250;7.456;2023-02-19T08:56:18;7.75;;;1.42;;
22916;SDS011;11624;53.250;7.456;2023-02-19T08:58:47;7.65;;;1.20;;
22916;SDS011;11624;53.250;7.456;2023-02-19T09:01:16;3.03;;;1.00;;
22916;SDS011;11624;53.250;7.456;2023-02-19T09:03:44;4.40;;;1.05;;
22916;SDS011;11624;53.250;7.456;2023-02-19T09:06:14;4.82;;;1.33;;
22916;SDS011;11624;53.250;7.456;2023-02-19T09:08:44;8.68;;;1.65;;
22916;SDS011;11624;53.250;7.456;2023-02-19T09:11:12;6.47;;;1.45;;
22916;SDS011;11624;53.250;7.456;2023-02-19T09:13:41;6.88;;;1.40;;
22916;SDS011;11624;53.250;7.456;2023-02-19T09:16:12;8.80;;;1.58;;
22916;SDS011;11624;53.250;7.456;2023-02-19T09:18:40;9.05;;;1.30;;
22916;SDS011;11624;53.250;7.456;2023-02-19T09:21:08;10.07;;;1.70;;
22916;SDS011;11624;53.250;7.456;2023-02-19T09:23:37;7.22;;;1.10;;
22916;SDS011;11624;53.250;7.456;2023-02-19T09:26:05;6.90;;;1.00;;
22916;SDS011;11624;53.250;7.456;2023-02-19T09:28:35;8.18;;;1.23;;
22916;SDS011;11624;53.250;7.456;2023-02-19T09:31:08;7.50;;;1.05;;
22916;SDS011;11624;53.250;7.456;2023-02-19T09:33:42;9.60;;;1.55;;
22916;SDS011;11624;53.250;7.456;2023-02-19T09:36:11;9.32;;;1.42;;
22916;SDS011;11624;53.250;7.456;2023-02-19T09:38:41;7.80;;;1.35;;
22916;SDS011;11624;53.250;7.456;2023-02-19T09:41:13;5.10;;;1.23;;
22916;SDS011;11624;53.250;7.456;2023-02-19T09:43:44;5.55;;;1.23;;
22916;SDS011;11624;53.250;7.456;2023-02-19T09:46:17;7.57;;;1.50;;
22916;SDS011;11624;53.250;7.456;2023-02-19T09:51:25;6.60;;;1.55;;
22916;SDS011;11624;53.250;7.456;2023-02-19T09:53:55;8.80;;;1.70;;
22916;SDS011;11624;53.250;7.456;2023-02-19T09:56:24;6.88;;;1.45;;
22916;SDS011;11624;53.250;7.456;2023-02-19T09:58:54;8.45;;;1.48;;
22916;SDS011;11624;53.250;7.456;2023-02-19T10:01:25;9.30;;;1.38;;
22916;SDS011;11624;53.250;7.456;2023-02-19T10:03:59;9.57;;;1.65;;
22916;SDS011;11624;53.250;7.456;2023-02-19T10:06:27;3.63;;;0.95;;
22916;SDS011;11624;53.250;7.456;2023-02-19T10:08:59;9.20;;;1.30;;
22916;SDS011;11624;53.250;7.456;2023-02-19T10:11:40;5.40;;;1.40;;
22916;SDS011;11624;53.250;7.456;2023-02-19T10:14:11;8.23;;;1.30;;
22916;SDS011;11624;53.250;7.456;2023-02-19T10:16:43;7.60;;;1.35;;
22916;SDS011;11624;53.250;7.456;2023-02-19T10:19:14;8.43;;;1.45;;
22916;SDS011;11624;53.250;7.456;2023-02-19T10:21:43;7.15;;;1.30;;
22916;SDS011;11624;53.250;7.456;2023-02-19T10:24:13;7.82;;;1.23;;
22916;SDS011;11624;53.250;7.456;2023-02-19T10:26:47;7.55;;;1.35;;
22916;SDS011;11624;53.250;7.456;2023-02-19T10:29:16;9.75;;;1.38;;
22916;SDS011;11624;53.250;7.456;2023-02-19T10:31:47;6.78;;;1.27;;
22916;SDS011;11624;53.250;7.456;2023-02-19T10:34:17;8.43;;;1.00;;
22916;SDS011;11624;53.250;7.456;2023-02-19T10:36:48;7.85;;;1.40;;
22916;SDS011;11624;53.250;7.456;2023-02-19T10:39:30;9.18;;;1.40;;
22916;SDS011;11624;53.250;7.456;2023-02-19T10:42:14;8.93;;;1.60;;
22916;SDS011;11624;53.250;7.456;2023-02-19T10:44:45;5.40;;;1.40;;
22916;SDS011;11624;53.250;7.456;2023-02-19T10:47:16;8.25;;;1.38;;
22916;SDS011;11624;53.250;7.456;2023-02-19T10:49:48;10.30;;;1.75;;
22916;SDS011;11624;53.250;7.456;2023-02-19T10:52:19;8.13;;;1.60;;
22916;SDS011;11624;53.250;7.456;2023-02-19T10:54:51;7.35;;;1.30;;
22916;SDS011;11624;53.250;7.456;2023-02-19T10:57:23;6.30;;;1.20;;
22916;SDS011;11624;53.250;7.456;2023-02-19T10:59:56;7.88;;;1.27;;
22916;SDS011;11624;53.250;7.456;2023-02-19T11:02:28;11.23;;;1.60;;
22916;SDS011;11624;53.250;7.456;2023-02-19T11:05:03;6.47;;;1.10;;
22916;SDS011;11624;53.250;7.456;2023-02-19T11:07:45;10.07;;;1.55;;
22916;SDS011;11624;53.250;7.456;2023-02-19T11:10:19;10.75;;;1.38;;
22916;SDS011;11624;53.250;7.456;2023-02-19T11:12:52;7.65;;;1.08;;
22916;SDS011;11624;53.250;7.456;2023-02-19T11:15:24;8.95;;;1.67;;
22916;SDS011;11624;53.250;7.456;2023-02-19T11:17:56;9.30;;;1.30;;
22916;SDS011;11624;53.250;7.456;2023-02-19T11:20:30;8.23;;;1.23;;
22916;SDS011;11624;53.250;7.456;2023-02-19T11:22:59;10.88;;;1.30;;
22916;SDS011;11624;53.250;7.456;2023-02-19T11:25:32;7.30;;;1.00;;
22916;SDS011;11624;53.250;7.456;2023-02-19T11:28:02;6.57;;;1.35;;
22916;SDS011;11624;53.250;7.456;2023-02-19T11:30:40;9.63;;;1.42;;
22916;SDS011;11624;53.250;7.456;2023-02-19T11:36:22;6.57;;;1.00;;
22916;SDS011;11624;53.250;7.456;2023-02-19T11:38:56;7.68;;;1.40;;
22916;SDS011;11624;53.250;7.456;2023-02-19T11:41:33;7.57;;;1.30;;
22916;SDS011;11624;53.250;7.456;2023-02-19T11:44:25;6.28;;;1.42;;
22916;SDS011;11624;53.250;7.456;2023-02-19T11:47:13;9.63;;;1.30;;
22916;SDS011;11624;53.250;7.456;2023-02-19T11:49:57;9.30;;;1.17;;
22916;SDS011;11624;53.250;7.456;2023-02-19T11:52:34;12.68;;;1.30;;
22916;SDS011;11624;53.250;7.456;2023-02-19T11:55:16;8.80;;;1.55;;
22916;SDS011;11624;53.250;7.456;2023-02-19T11:58:08;8.68;;;1.65;;
22916;SDS011;11624;53.250;7.456;2023-02-19T12:01:05;7.63;;;1.20;;
22916;SDS011;11624;53.250;7.456;2023-02-19T12:03:57;6.20;;;1.20;;
22916;SDS011;11624;53.250;7.456;2023-02-19T12:06:44;6.93;;;1.27;;
22916;SDS011;11624;53.250;7.456;2023-02-19T12:09:27;10.18;;;1.50;;
22916;SDS011;11624;53.250;7.456;2023-02-19T12:12:12;8.20;;;1.48;;
22916;SDS011;11624;53.250;7.456;2023-02-19T12:18:00;9.25;;;1.77;;
22916;SDS011;11624;53.250;7.456;2023-02-19T12:20:38;7.78;;;1.55;;
22916;SDS011;11624;53.250;7.456;2023-02-19T12:27:34;8.25;;;1.60;;
22916;SDS011;11624;53.250;7.456;2023-02-19T12:30:23;9.05;;;1.38;;
22916;SDS011;11624;53.250;7.456;2023-02-19T12:33:08;9.35;;;1.17;;
22916;SDS011;11624;53.250;7.456;2023-02-19T12:35:59;6.13;;;0.98;;
22916;SDS011;11624;53.250;7.456;2023-02-19T12:38:35;5.50;;;1.10;;
22916;SDS011;11624;53.250;7.456;2023-02-19T12:41:13;7.28;;;1.70;;
22916;SDS011;11624;53.250;7.456;2023-02-19T12:43:53;7.85;;;1.00;;
22916;SDS011;11624;53.250;7.456;2023-02-19T12:46:27;10.23;;;1.50;;
22916;SDS011;11624;53.250;7.456;2023-02-19T12:49:00;6.97;;;1.25;;
22916;SDS011;11624;53.250;7.456;2023-02-19T12:51:35;7.82;;;1.30;;
22916;SDS011;11624;53.250;7.456;2023-02-19T12:54:10;6.68;;;1.40;;
22916;SDS011;11624;53.250;7.456;2023-02-19T12:56:42;11.65;;;1.63;;
22916;SDS011;11624;53.250;7.456;2023-02-19T12:59:17;11.55;;;1.70;;
22916;SDS011;11624;53.250;7.456;2023-02-19T13:01:51;8.60;;;1.30;;
22916;SDS011;11624;53.250;7.456;2023-02-19T13:04:26;9.13;;;1.38;;
22916;SDS011;11624;53.250;7.456;2023-02-19T13:07:00;3.53;;;0.95;;
22916;SDS011;11624;53.250;7.456;2023-02-19T13:09:33;7.88;;;1.23;;
22916;SDS011;11624;53.250;7.456;2023-02-19T13:12:06;10.40;;;1.30;;
22916;SDS011;11624;53.250;7.456;2023-02-19T13:14:40;7.47;;;1.30;;
22916;SDS011;11624;53.250;7.456;2023-02-19T13:17:15;10.80;;;1.60;;
22916;SDS011;11624;53.250;7.456;2023-02-19T13:19:49;9.02;;;1.35;;
22916;SDS011;11624;53.250;7.456;2023-02-19T13:22:24;11.10;;;1.42;;
22916;SDS011;11624;53.250;7.456;2023-02-19T13:25:15;5.97;;;1.02;;
22916;SDS011;11624;53.250;7.456;2023-02-19T13:33:44;10.50;;;1.33;;
22916;SDS011;11624;53.250;7.456;2023-02-19T13:36:21;6.72;;;1.08;;
22916;SDS011;11624;53.250;7.456;2023-02-19T13:38:52;8.65;;;1.50;;
22916;SDS011;11624;53.250;7.456;2023-02-19T13:41:25;8.38;;;1.75;;
22916;SDS011;11624;53.250;7.456;2023-02-19T13:43:56;9.23;;;1.25;;
22916;SDS011;11624;53.250;7.456;2023-02-19T13:46:35;7.28;;;0.85;;
22916;SDS011;11624;53.250;7.456;2023-02-19T13:49:32;10.45;;;1.48;;
22916;SDS011;11624;53.250;7.456;2023-02-19T14:01:16;8.20;;;1.30;;
22916;SDS011;11624;53.250;7.456;2023-02-19T14:03:47;9.50;;;1.20;;
22916;SDS011;11624;53.250;7.456;2023-02-19T14:06:20;12.80;;;1.25;;
22916;SDS011;11624;53.250;7.456;2023-02-19T14:08:50;7.55;;;1.02;;
22916;SDS011;11624;53.250;7.456;2023-02-19T14:14:33;6.40;;;1.30;;
22916;SDS011;11624;53.250;7.456;2023-02-19T14:19:57;6.85;;;1.33;;
22916;SDS011;11624;53.250;7.456;2023-02-19T14:22:49;10.80;;;1.40;;
22916;SDS011;11624;53.250;7.456;2023-02-19T14:25:32;8.55;;;1.00;;
22916;SDS011;11624;53.250;7.456;2023-02-19T14:28:05;11.02;;;1.42;;
22916;SDS011;11624;53.250;7.456;2023-02-19T14:30:47;8.13;;;1.50;;
22916;SDS011;11624;53.250;7.456;2023-02-19T14:33:17;10.40;;;1.50;;
22916;SDS011;11624;53.250;7.456;2023-02-19T14:35:51;6.97;;;1.45;;
22916;SDS011;11624;53.250;7.456;2023-02-19T14:38:22;7.80;;;1.33;;
22916;SDS011;11624;53.250;7.456;2023-02-19T14:40:53;12.48;;;1.30;;
22916;SDS011;11624;53.250;7.456;2023-02-19T14:43:23;5.10;;;1.15;;
22916;SDS011;11624;53.250;7.456;2023-02-19T14:45:53;10.25;;;1.58;;
22916;SDS011;11624;53.250;7.456;2023-02-19T14:48:26;8.70;;;1.50;;
22916;SDS011;11624;53.250;7.456;2023-02-19T14:51:03;5.75;;;1.45;;
22916;SDS011;11624;53.250;7.456;2023-02-19T14:53:36;7.18;;;1.25;;
22916;SDS011;11624;53.250;7.456;2023-02-19T14:56:06;9.52;;;1.30;;
22916;SDS011;11624;53.250;7.456;2023-02-19T14:58:45;8.80;;;1.50;;
22916;SDS011;11624;53.250;7.456;2023-02-19T15:01:32;10.90;;;1.70;;
22916;SDS011;11624;53.250;7.456;2023-02-19T15:04:00;8.38;;;1.10;;
22916;SDS011;11624;53.250;7.456;2023-02-19T15:06:30;9.13;;;1.35;;
22916;SDS011;11624;53.250;7.456;2023-02-19T15:09:01;10.10;;;1.45;;
22916;SDS011;11624;53.250;7.456;2023-02-19T15:11:32;6.97;;;1.50;;
22916;SDS011;11624;53.250;7.456;2023-02-19T15:14:02;7.43;;;1.20;;
22916;SDS011;11624;53.250;7.456;2023-02-19T15:16:33;6.63;;;1.10;;
22916;SDS011;11624;53.250;7.456;2023-02-19T15:19:04;10.55;;;1.63;;
22916;SDS011;11624;53.250;7.456;2023-02-19T15:21:36;9.57;;;1.50;;
22916;SDS011;11624;53.250;7.456;2023-02-19T15:24:06;8.18;;;1.55;;
22916;SDS011;11624;53.250;7.456;2023-02-19T15:26:35;7.43;;;1.35;;
22916;SDS011;11624;53.250;7.456;2023-02-19T15:29:08;10.27;;;2.00;;
22916;SDS011;11624;53.250;7.456;2023-02-19T15:31:43;14.77;;;3.65;;
22916;SDS011;11624;53.250;7.456;2023-02-19T15:34:16;11.45;;;2.05;;
22916;SDS011;11624;53.250;7.456;2023-02-19T15:36:47;7.40;;;1.63;;
22916;SDS011;11624;53.250;7.456;2023-02-19T15:39:21;10.98;;;1.90;;
22916;SDS011;11624;53.250;7.456;2023-02-19T15:41:54;11.25;;;1.52;;
22916;SDS011;11624;53.250;7.456;2023-02-19T15:44:30;9.95;;;1.50;;
22916;SDS011;11624;53.250;7.456;2023-02-19T15:47:06;4.97;;;1.13;;
22916;SDS011;11624;53.250;7.456;2023-02-19T15:49:43;4.35;;;1.10;;
22916;SDS011;11624;53.250;7.456;2023-02-19T15:52:18;9.82;;;1.60;;